Time;durP1;ratioP1;P1;durP2;ratioP2;P2;SDS_P1;SDS_P2;PMS_P1;PMS_P2;Temp;Humidity;BMP_temperature;BMP_pressure;BME280_temperature;BME280_humidity;BME280_pressure;Samples;Min_cycle;Max_cycle;Signal;HPM_P1;HPM_P2
2023/08/30 07:36:37;;;;;;;6.22;2.53;;;15.20;91.80;;;;;;5066624;28;20372;-85
2023/08/30 07:39:17;;;;;;;5.72;3.17;;;14.70;92.20;;;;;;5016372;28;20064;-86
2023/08/30 07:41:45;;;;;;;4.97;2.80;;;14.70;92.40;;;;;;5032857;28;20046;-87
2023/08/30 07:44:41;;;;;;;5.45;3.15;;;14.60;92.50;;;;;;5026580;28;20046;-88
2023/08/30 07:47:25;;;;;;;5.38;3.42;;;14.60;92.60;;;;;;5019758;28;20144;-85
2023/08/30 07:50:01;;;;;;;6.53;3.30;;;14.40;92.70;;;;;;5023427;28;20072;-85
2023/08/30 07:52:38;;;;;;;6.00;3.30;;;14.40;92.80;;;;;;5001301;28;20041;-85
2023/08/30 07:55:13;;;;;;;4.95;2.90;;;14.30;92.90;;;;;;5032507;28;20041;-84
2023/08/30 07:57:56;;;;;;;5.78;3.13;;;14.30;93.10;;;;;;5033165;28;20041;-84
2023/08/30 08:00:26;;;;;;;5.28;2.72;;;14.30;93.20;;;;;;5016299;28;20067;-85
2023/08/30 08:02:55;;;;;;;6.97;3.10;;;14.20;93.30;;;;;;5032290;28;20444;-84
2023/08/30 08:05:22;;;;;;;6.10;2.88;;;14.10;93.40;;;;;;5015432;28;20410;-83
2023/08/30 08:07:53;;;;;;;5.25;3.30;;;14.10;93.50;;;;;;5031758;28;20045;-83
2023/08/30 08:10:23;;;;;;;4.47;2.17;;;14.10;93.50;;;;;;5015682;28;20045;-83
2023/08/30 08:12:50;;;;;;;6.15;3.47;;;14.10;93.60;;;;;;5017265;28;20590;-83
2023/08/30 08:15:18;;;;;;;6.05;3.00;;;14.10;93.70;;;;;;5011581;28;20053;-84
2023/08/30 08:17:45;;;;;;;6.60;3.53;;;14.00;93.70;;;;;;5015935;28;20045;-83
2023/08/30 08:20:13;;;;;;;3.95;2.65;;;14.00;93.80;;;;;;4997112;28;20049;-84
2023/08/30 08:22:46;;;;;;;4.40;2.55;;;14.00;93.80;;;;;;5028656;28;20044;-83
2023/08/30 08:25:14;;;;;;;6.70;2.60;;;14.10;93.90;;;;;;5029200;28;20492;-83
2023/08/30 08:27:46;;;;;;;4.68;2.55;;;14.10;93.90;;;;;;5028234;28;20050;-84
2023/08/30 08:30:15;;;;;;;4.47;2.00;;;14.10;93.90;;;;;;4992994;28;20047;-83
2023/08/30 08:32:47;;;;;;;4.65;2.05;;;14.20;93.90;;;;;;4995342;28;20049;-82
2023/08/30 08:35:15;;;;;;;4.70;2.22;;;14.20;93.90;;;;;;5033928;28;20128;-82
2023/08/30 08:37:42;;;;;;;5.82;1.88;;;14.20;93.90;;;;;;5011399;28;20129;-83
2023/08/30 08:40:10;;;;;;;3.85;2.00;;;14.30;93.90;;;;;;4998529;28;20069;-84
2023/08/30 08:42:43;;;;;;;3.90;2.00;;;14.40;93.90;;;;;;4999338;28;20060;-83
2023/08/30 08:45:11;;;;;;;4.00;1.85;;;14.40;93.90;;;;;;5005431;28;20141;-83
2023/08/30 08:47:39;;;;;;;3.95;1.70;;;14.40;93.90;;;;;;5052676;23;20036;-84
2023/08/30 08:50:09;;;;;;;5.00;2.03;;;14.50;93.90;;;;;;4960035;28;20055;-84
2023/08/30 08:52:39;;;;;;;3.38;1.77;;;14.50;93.90;;;;;;4944796;28;20061;-84
2023/08/30 08:55:26;;;;;;;4.10;2.30;;;14.50;94.00;;;;;;4933576;28;20153;-84
2023/08/30 08:57:57;;;;;;;5.03;2.73;;;14.60;94.00;;;;;;4952710;28;20042;-83
2023/08/30 09:00:25;;;;;;;4.97;2.42;;;14.60;94.00;;;;;;4967053;28;20493;-81
2023/08/30 09:02:54;;;;;;;6.10;3.20;;;14.60;94.00;;;;;;4968896;28;20050;-83
2023/08/30 09:05:22;;;;;;;4.38;2.60;;;14.60;94.10;;;;;;4944627;28;20113;-84
2023/08/30 09:07:53;;;;;;;6.10;3.50;;;14.50;94.20;;;;;;4956497;28;20047;-82
2023/08/30 09:10:21;;;;;;;5.78;3.25;;;14.50;94.30;;;;;;4952204;28;20046;-84
2023/08/30 09:12:50;;;;;;;6.50;3.65;;;14.40;94.30;;;;;;4972678;28;20085;-83
2023/08/30 09:15:19;;;;;;;4.63;2.75;;;14.40;94.40;;;;;;4979098;28;20046;-83
2023/08/30 09:17:48;;;;;;;6.03;3.08;;;14.40;94.40;;;;;;4956174;28;20057;-84
2023/08/30 09:20:15;;;;;;;5.20;3.45;;;14.40;94.50;;;;;;4956116;28;20054;-85
2023/08/30 09:22:43;;;;;;;6.28;3.15;;;14.40;94.50;;;;;;4963420;28;20062;-84
2023/08/30 09:25:27;;;;;;;5.18;2.80;;;14.40;94.50;;;;;;4956620;28;20049;-84
2023/08/30 09:28:00;;;;;;;4.65;3.05;;;14.50;94.60;;;;;;4954078;28;20054;-84
2023/08/30 09:30:28;;;;;;;6.50;3.10;;;14.50;94.60;;;;;;4958701;28;20094;-83
2023/08/30 09:33:04;;;;;;;5.05;3.22;;;14.50;94.60;;;;;;4960247;28;20054;-83
2023/08/30 09:35:32;;;;;;;6.85;4.18;;;14.50;94.70;;;;;;4966312;28;20111;-84
2023/08/30 09:38:00;;;;;;;5.72;3.47;;;14.50;94.70;;;;;;4966142;28;20487;-85
2023/08/30 09:40:28;;;;;;;4.75;2.70;;;14.50;94.80;;;;;;4972546;28;20046;-85
2023/08/30 09:42:58;;;;;;;5.10;2.97;;;14.50;94.80;;;;;;4950152;28;20420;-85
2023/08/30 09:45:39;;;;;;;4.10;2.55;;;14.60;94.80;;;;;;4951221;28;20456;-84
2023/08/30 09:48:09;;;;;;;4.63;2.60;;;14.60;94.80;;;;;;4950953;28;20054;-85
2023/08/30 09:50:36;;;;;;;4.45;3.00;;;14.50;94.80;;;;;;4930730;28;20053;-84
2023/08/30 09:53:08;;;;;;;5.00;3.15;;;14.60;94.90;;;;;;4954986;28;20043;-84
2023/08/30 09:56:16;;;;;;;4.32;2.72;;;14.60;95.00;;;;;;4961522;28;20053;-90
2023/08/30 09:58:44;;;;;;;3.50;1.88;;;14.60;94.90;;;;;;4883735;29;20075;-90
2023/08/30 10:01:16;;;;;;;3.45;2.25;;;14.70;94.90;;;;;;4910091;29;20063;-88
2023/08/30 10:03:44;;;;;;;4.18;2.13;;;14.80;94.90;;;;;;4935938;28;20453;-90
2023/08/30 10:06:15;;;;;;;3.70;2.25;;;14.80;94.80;;;;;;4970648;28;20050;-89
2023/08/30 10:08:47;;;;;;;5.30;2.45;;;14.90;94.80;;;;;;4964943;28;20501;-87
2023/08/30 10:11:18;;;;;;;3.30;1.85;;;15.00;94.80;;;;;;4969318;28;20046;-87
2023/08/30 10:13:47;;;;;;;5.07;2.28;;;15.10;94.80;;;;;;4949794;28;20101;-89
2023/08/30 10:16:20;;;;;;;3.97;2.28;;;15.10;94.80;;;;;;4960529;28;20499;-87
2023/08/30 10:18:54;;;;;;;3.55;1.75;;;15.10;94.80;;;;;;4985872;28;20043;-86
2023/08/30 10:21:36;;;;;;;4.35;2.03;;;15.20;94.90;;;;;;4975532;28;20678;-87
2023/08/30 10:24:07;;;;;;;4.68;2.47;;;15.30;94.80;;;;;;4964195;28;20047;-87
2023/08/30 10:26:56;;;;;;;3.80;2.00;;;15.30;94.80;;;;;;4956793;28;20117;-86
2023/08/30 10:29:25;;;;;;;3.17;1.90;;;15.40;94.80;;;;;;4968532;28;20485;-86
2023/08/30 10:31:53;;;;;;;3.78;2.22;;;15.50;94.80;;;;;;4949108;28;20061;-87
2023/08/30 10:34:21;;;;;;;5.97;2.88;;;15.60;95.10;;;;;;4964922;28;20051;-86
2023/08/30 10:37:02;;;;;;;4.55;2.83;;;15.70;95.00;;;;;;4944407;28;20047;-86
2023/08/30 10:39:42;;;;;;;4.20;2.40;;;15.80;94.70;;;;;;4955716;29;20082;-89
2023/08/30 10:42:13;;;;;;;3.70;2.40;;;15.90;94.60;;;;;;4966190;28;20047;-88
2023/08/30 10:45:07;;;;;;;3.38;1.90;;;16.00;94.60;;;;;;4944945;28;20061;-89
2023/08/30 10:47:38;;;;;;;4.32;2.42;;;16.10;94.60;;;;;;4953016;28;20066;-86
2023/08/30 10:50:11;;;;;;;5.57;2.55;;;16.10;94.50;;;;;;4958249;28;20050;-86
2023/08/30 10:52:39;;;;;;;5.82;3.38;;;16.10;94.60;;;;;;4969067;28;20081;-86
2023/08/30 10:55:11;;;;;;;4.05;2.85;;;16.10;94.70;;;;;;4968933;28;20046;-86
2023/08/30 10:57:45;;;;;;;4.22;2.58;;;16.10;94.70;;;;;;4976865;28;20513;-87
2023/08/30 11:00:20;;;;;;;7.15;4.18;;;16.10;94.70;;;;;;4981137;28;20046;-86
2023/08/30 11:02:51;;;;;;;5.18;3.63;;;16.10;94.80;;;;;;4980314;28;20042;-89
2023/08/30 11:05:23;;;;;;;4.28;2.58;;;16.10;94.80;;;;;;4945472;28;20150;-88
2023/08/30 11:07:52;;;;;;;4.18;2.83;;;16.10;94.80;;;;;;4943957;28;20055;-85
2023/08/30 11:10:20;;;;;;;4.25;2.80;;;16.10;94.80;;;;;;4968039;28;20145;-84
2023/08/30 11:12:52;;;;;;;4.70;2.97;;;16.10;94.80;;;;;;4951158;28;20047;-84
2023/08/30 11:15:20;;;;;;;4.57;3.28;;;16.20;94.90;;;;;;4951719;28;20112;-86
2023/08/30 11:17:50;;;;;;;4.65;3.22;;;16.40;94.70;;;;;;4958386;28;20039;-86
2023/08/30 11:20:22;;;;;;;5.43;3.45;;;16.70;94.50;;;;;;4955088;28;20050;-90
2023/08/30 11:22:49;;;;;;;5.10;3.40;;;16.70;94.30;;;;;;4947660;28;20070;-88
2023/08/30 11:25:19;;;;;;;4.75;3.00;;;16.80;94.30;;;;;;4961357;28;20042;-88
2023/08/30 11:28:02;;;;;;;6.35;3.45;;;16.70;94.40;;;;;;4943460;28;20501;-89
2023/08/30 11:30:32;;;;;;;5.30;3.45;;;16.80;94.40;;;;;;4944662;28;20050;-89
2023/08/30 11:33:05;;;;;;;9.90;6.28;;;16.80;94.40;;;;;;4945524;28;20054;-90
2023/08/30 11:35:36;;;;;;;9.68;6.70;;;17.00;94.40;;;;;;4963373;28;20050;-87
2023/08/30 11:38:06;;;;;;;9.43;6.93;;;16.90;94.40;;;;;;4959392;28;20397;-87
2023/08/30 11:40:36;;;;;;;8.30;6.40;;;16.90;94.40;;;;;;4957163;28;20114;-86
2023/08/30 11:43:28;;;;;;;8.00;6.05;;;17.00;94.50;;;;;;4985284;28;20065;-87
2023/08/30 11:46:07;;;;;;;5.67;4.53;;;17.10;94.40;;;;;;4950066;28;20051;-88
2023/08/30 11:48:48;;;;;;;7.25;3.83;;;17.20;94.20;;;;;;4942016;28;20334;-88
2023/08/30 11:51:18;;;;;;;5.03;3.85;;;17.50;94.00;;;;;;4941054;29;20051;-87
2023/08/30 11:53:49;;;;;;;5.10;3.17;;;17.90;93.70;;;;;;4949291;28;20043;-87
2023/08/30 11:56:28;;;;;;;4.88;3.35;;;18.40;93.10;;;;;;4958011;28;20456;-86
2023/08/30 11:59:21;;;;;;;5.30;3.20;;;19.10;92.50;;;;;;4971163;28;20050;-87
2023/08/30 12:01:53;;;;;;;3.85;2.60;;;19.50;91.50;;;;;;4945410;28;20079;-87
2023/08/30 12:04:33;;;;;;;3.92;2.60;;;19.80;91.20;;;;;;4957058;28;20055;-88
2023/08/30 12:07:14;;;;;;;3.85;2.70;;;20.20;90.70;;;;;;4954255;28;20040;-88
2023/08/30 12:10:20;;;;;;;3.80;2.55;;;20.50;90.10;;;;;;4930741;28;20043;-88
2023/08/30 12:12:53;;;;;;;5.57;2.70;;;20.30;89.70;;;;;;4955681;28;20050;-86
2023/08/30 12:15:26;;;;;;;5.03;2.67;;;19.80;90.30;;;;;;4959011;28;20457;-88
2023/08/30 12:18:06;;;;;;;4.68;2.63;;;19.60;90.30;;;;;;4951200;28;21014;-88
2023/08/30 12:21:15;;;;;;;3.95;2.28;;;19.20;90.40;;;;;;4959223;29;20050;-88
2023/08/30 12:24:03;;;;;;;4.18;2.05;;;19.00;90.40;;;;;;4953901;28;20058;-90
2023/08/30 12:26:55;;;;;;;;;;;;;;;;;;;;;
2023/08/30 12:29:36;;;;;;;;;;;;;;;;;;;;;
2023/08/30 12:32:37;;;;;;;4.40;1.73;;;18.20;90.90;;;;;;4968905;28;20107;-88
2023/08/30 12:35:17;;;;;;;3.40;1.90;;;18.10;91.10;;;;;;4972370;28;20587;-87
2023/08/30 12:37:53;;;;;;;5.22;1.48;;;18.20;90.90;;;;;;4957191;29;20053;-88
2023/08/30 12:41:47;;;;;;;4.43;1.38;;;18.30;90.70;;;;;;4948033;28;20149;-87
2023/08/30 12:44:04;;;;;;;2.83;1.10;;;18.40;90.30;;;;;;4952270;28;20059;-88
2023/08/30 12:46:55;;;;;;;3.20;1.23;;;18.60;90.30;;;;;;4939570;29;20058;-95
2023/08/30 12:49:54;;;;;;;3.95;1.08;;;18.80;90.30;;;;;;4952566;28;20125;-89
2023/08/30 12:52:55;;;;;;;4.10;1.00;;;18.90;89.70;;;;;;4932840;29;20039;-88
2023/08/30 12:55:48;;;;;;;3.65;0.90;;;18.80;89.20;;;;;;4928187;28;20094;-90
2023/08/30 12:58:46;;;;;;;3.25;1.52;;;18.80;89.00;;;;;;4932556;28;20054;-88
2023/08/30 13:01:19;;;;;;;4.28;1.73;;;18.60;88.30;;;;;;4942063;28;20050;-89
2023/08/30 13:03:49;;;;;;;5.85;1.50;;;18.30;87.70;;;;;;4925550;29;20047;-87
2023/08/30 13:13:03;;;;;;;;;;;;;;;;;;;;;
2023/08/30 13:21:05;;;;;;;4.97;1.17;;;18.70;87.50;;;;;;4942739;29;20067;-96
2023/08/30 14:21:54;;;;;;;4.07;0.70;;;19.60;78.00;;;;;;2743597;23;20383;-95
2023/08/30 14:28:27;;;;;;;2.63;0.60;;;19.40;77.90;;;;;;4874738;29;20057;-90
2023/08/30 14:31:26;;;;;;;1.90;0.60;;;19.60;77.80;;;;;;4846890;29;20057;-91
2023/08/30 14:39:31;;;;;;;;;;;;;;;;;;;;;
2023/08/30 14:43:22;;;;;;;;;;;;;;;;;;;;;
2023/08/30 15:23:46;;;;;;;2.15;0.50;;;24.00;65.20;;;;;;5192387;27;20140;-87
2023/08/30 15:43:22;;;;;;;2.80;0.30;;;24.40;63.10;;;;;;5084986;22;28619736;-91
2023/08/30 15:46:33;;;;;;;1.55;0.32;;;25.10;62.10;;;;;;6228681;22;20024;-90
2023/08/30 16:09:55;;;;;;;7.55;1.65;;;19.00;71.70;;;;;;6240007;23;20436;-94
2023/08/30 16:12:25;;;;;;;3.13;0.82;;;18.50;72.90;;;;;;6137840;23;20021;-93
2023/08/30 16:20:59;;;;;;;;;;;18.50;73.80;;;;;;6208839;23;19943;-90
2023/08/30 16:29:10;;;;;;;2.42;0.68;;;19.40;72.30;;;;;;6222887;23;20019;-96
2023/08/30 16:36:40;;;;;;;2.08;0.55;;;19.70;72.70;;;;;;6199046;23;20013;-92
2023/08/30 16:39:38;;;;;;;2.38;0.40;;;21.60;69.60;;;;;;6188746;23;20024;-92
2023/08/30 16:43:21;;;;;;;4.22;0.40;;;22.60;67.90;;;;;;6207083;23;20138;-96
2023/08/30 16:46:41;;;;;;;;;;;;;;;;;;;;;
2023/08/30 16:49:57;;;;;;;2.38;0.50;;;23.80;65.50;;;;;;6101483;23;20022;-92
2023/08/30 16:56:32;;;;;;;1.42;0.50;;;22.00;68.90;;;;;;6217175;23;19911;-95
2023/08/30 17:00:18;;;;;;;3.38;0.40;;;20.80;72.00;;;;;;6178544;23;20023;-90
2023/08/30 17:02:51;;;;;;;3.33;0.73;;;20.00;73.50;;;;;;6211513;23;20012;-92
2023/08/30 17:05:22;;;;;;;2.03;0.40;;;19.40;74.80;;;;;;6201178;23;20065;-88
2023/08/30 17:07:53;;;;;;;1.20;0.50;;;19.00;75.70;;;;;;6089313;23;20018;-89
2023/08/30 17:10:49;;;;;;;2.15;0.55;;;18.80;76.30;;;;;;6079725;23;20022;-96
2023/08/30 17:13:17;;;;;;;1.05;0.50;;;18.60;77.00;;;;;;6075674;23;20022;-94
2023/08/30 17:15:47;;;;;;;1.50;0.43;;;18.60;77.00;;;;;;6075052;23;20026;-87
2023/08/30 17:18:16;;;;;;;2.45;0.50;;;18.50;76.80;;;;;;6097594;23;20372;-92
2023/08/30 17:20:48;;;;;;;2.65;0.50;;;18.30;77.00;;;;;;6075495;23;20060;-90
2023/08/30 17:23:21;;;;;;;1.48;0.40;;;18.20;76.80;;;;;;6116437;23;20025;-94
2023/08/30 17:25:52;;;;;;;1.45;0.40;;;18.00;77.00;;;;;;6133606;23;20021;-95
2023/08/30 17:28:20;;;;;;;2.20;0.38;;;17.90;77.30;;;;;;6134975;23;20051;-91
2023/08/30 17:30:47;;;;;;;2.85;0.50;;;17.70;77.50;;;;;;6133015;23;20017;-89
2023/08/30 17:33:16;;;;;;;1.23;0.40;;;17.60;77.80;;;;;;6110621;23;20021;-86
2023/08/30 17:35:44;;;;;;;1.50;0.40;;;17.50;78.10;;;;;;6143412;23;20112;-84
2023/08/30 17:38:14;;;;;;;3.08;0.60;;;17.40;78.30;;;;;;6139851;23;20037;-89
2023/08/30 17:40:44;;;;;;;1.75;0.50;;;17.30;78.50;;;;;;6138271;23;20108;-90
2023/08/30 17:43:14;;;;;;;1.25;0.40;;;17.30;78.80;;;;;;6133061;23;20350;-89
2023/08/30 17:45:45;;;;;;;2.92;0.50;;;17.20;79.10;;;;;;6132505;23;20021;-88
2023/08/30 17:48:16;;;;;;;2.42;0.63;;;17.10;79.40;;;;;;6132529;23;20017;-86
2023/08/30 17:50:50;;;;;;;4.28;0.63;;;17.00;79.70;;;;;;6157183;23;20479;-90
2023/08/30 17:57:37;;;;;;;2.97;0.40;;;16.90;80.20;;;;;;6215409;23;20407;-90
2023/08/30 18:00:25;;;;;;;2.45;0.63;;;16.80;80.70;;;;;;6174836;23;20104;-92
2023/08/30 18:03:06;;;;;;;1.75;0.50;;;16.70;81.10;;;;;;6165892;23;20035;-93
2023/08/30 18:05:35;;;;;;;3.25;0.68;;;16.70;81.30;;;;;;6167851;23;20016;-89
2023/08/30 18:08:05;;;;;;;2.80;0.88;;;16.60;81.70;;;;;;6140318;23;20051;-94
2023/08/30 18:11:10;;;;;;;2.83;0.73;;;16.50;81.90;;;;;;6136578;23;20005;-96
2023/08/30 18:13:47;;;;;;;3.25;1.00;;;16.50;82.10;;;;;;6163087;23;20021;-96
2023/08/30 18:16:26;;;;;;;2.58;0.70;;;16.40;82.40;;;;;;6134187;23;20454;-93
2023/08/30 18:19:17;;;;;;;2.83;0.88;;;16.40;82.70;;;;;;6135696;23;20025;-96
2023/08/30 18:21:44;;;;;;;3.17;0.55;;;16.30;82.90;;;;;;6132129;23;20029;-88
2023/08/30 18:24:13;;;;;;;2.45;1.13;;;16.30;83.10;;;;;;6132173;23;20025;-90
2023/08/30 18:27:10;;;;;;;;;;;;;;;;;;;;;
2023/08/30 18:31:05;;;;;;;2.35;0.70;;;16.10;83.70;;;;;;6038287;23;20015;-94
2023/08/30 18:34:01;;;;;;;3.45;0.60;;;16.00;83.90;;;;;;6126614;23;20021;-96
2023/08/30 18:37:49;;;;;;;1.70;0.60;;;16.00;84.20;;;;;;6128010;23;20048;-87
2023/08/30 18:40:42;;;;;;;2.28;0.70;;;15.80;84.40;;;;;;6099757;23;20058;-87
2023/08/30 18:43:49;;;;;;;2.33;0.68;;;15.70;84.80;;;;;;6067922;23;20077;-86
2023/08/30 18:52:09;;;;;;;1.65;0.70;;;15.60;85.40;;;;;;6005886;23;20011;-87
2023/08/30 18:59:45;;;;;;;1.88;0.60;;;15.50;85.70;;;;;;5902432;24;20026;-92
2023/08/30 19:07:19;;;;;;;1.98;0.50;;;15.40;86.00;;;;;;5954621;23;20023;-92
2023/08/30 19:09:55;;;;;;;1.70;0.50;;;15.30;86.20;;;;;;6005780;23;20399;-95
2023/08/30 19:12:33;;;;;;;3.70;0.57;;;15.30;86.20;;;;;;6004877;23;20558;-89
2023/08/30 19:15:13;;;;;;;2.47;0.75;;;15.20;86.40;;;;;;6005317;23;20035;-87
2023/08/30 19:17:44;;;;;;;3.92;0.70;;;15.20;86.50;;;;;;6004831;23;20106;-92
2023/08/30 19:24:13;;;;;;;2.55;0.50;;;15.20;86.80;;;;;;6033972;23;20129;-95
2023/08/30 19:26:40;;;;;;;1.77;0.57;;;15.10;86.80;;;;;;6090799;23;20021;-89
2023/08/30 19:29:07;;;;;;;2.80;0.40;;;15.10;87.00;;;;;;6131144;23;20027;-88
2023/08/30 19:31:41;;;;;;;2.03;0.50;;;15.00;87.10;;;;;;6131554;23;20013;-92
2023/08/30 19:34:12;;;;;;;1.33;0.60;;;15.00;87.20;;;;;;6132476;23;20021;-89
2023/08/30 19:36:39;;;;;;;1.90;0.60;;;15.00;87.30;;;;;;6134529;23;20029;-90
2023/08/30 19:39:09;;;;;;;1.77;0.50;;;15.00;87.40;;;;;;6133523;23;20041;-90
2023/08/30 19:41:47;;;;;;;1.25;0.50;;;15.00;87.50;;;;;;6135947;23;20021;-94
2023/08/30 19:44:14;;;;;;;1.30;0.50;;;15.00;87.40;;;;;;6133449;23;20031;-92
2023/08/30 19:46:44;;;;;;;1.98;0.43;;;15.00;87.50;;;;;;6133107;23;20032;-93
2023/08/30 19:49:12;;;;;;;1.65;0.30;;;15.00;87.40;;;;;;6114821;23;20024;-92
2023/08/30 19:51:39;;;;;;;2.28;0.50;;;15.00;87.50;;;;;;6120563;23;20005;-91
2023/08/30 19:54:12;;;;;;;2.42;0.47;;;15.10;87.70;;;;;;6139817;23;20099;-92
2023/08/30 19:56:50;;;;;;;2.28;0.55;;;15.10;87.70;;;;;;6134855;23;20025;-91
2023/08/30 19:59:20;;;;;;;4.00;0.98;;;15.10;87.80;;;;;;6108214;23;20021;-90
2023/08/30 20:01:59;;;;;;;2.45;0.60;;;15.00;88.00;;;;;;6107730;23;20025;-93
2023/08/30 20:04:31;;;;;;;4.03;0.70;;;15.10;87.90;;;;;;6133708;23;20021;-89
2023/08/30 20:06:58;;;;;;;1.58;0.50;;;15.00;87.90;;;;;;6132494;23;20017;-88
2023/08/30 20:09:26;;;;;;;1.20;0.35;;;15.10;88.00;;;;;;6131562;23;20059;-88
2023/08/30 20:11:53;;;;;;;1.50;0.40;;;15.10;88.00;;;;;;6132025;23;20047;-90
2023/08/30 20:14:23;;;;;;;2.28;0.52;;;15.00;88.00;;;;;;6132921;23;20021;-91
2023/08/30 20:17:23;;;;;;;2.88;0.50;;;15.10;88.10;;;;;;6120260;23;20025;-92
2023/08/30 20:20:16;;;;;;;2.15;0.50;;;15.10;88.30;;;;;;6161620;23;20334;-89
2023/08/30 20:28:12;;;;;;;1.77;0.60;;;15.00;88.50;;;;;;6247514;23;20385;-90
2023/08/30 20:30:51;;;;;;;2.30;0.50;;;14.90;88.80;;;;;;6173100;23;20016;-91
2023/08/30 20:33:27;;;;;;;2.88;0.60;;;14.80;88.90;;;;;;6221608;23;20016;-92
2023/08/30 20:36:06;;;;;;;1.75;0.50;;;14.80;89.10;;;;;;6151028;23;20139;-91
2023/08/30 20:38:35;;;;;;;3.50;0.80;;;14.70;89.30;;;;;;6191768;23;20023;-91
2023/08/30 20:41:03;;;;;;;2.50;0.50;;;14.70;89.40;;;;;;6132272;23;20045;-88
2023/08/30 20:43:33;;;;;;;2.30;0.57;;;14.70;89.50;;;;;;6132607;23;20020;-90
2023/08/30 20:46:00;;;;;;;3.75;0.75;;;14.60;89.60;;;;;;6133070;23;20098;-89
2023/08/30 20:53:32;;;;;;;3.55;0.80;;;14.60;89.70;;;;;;6204137;22;20035;-93
2023/08/30 21:03:34;;;;;;;5.15;0.70;;;14.60;89.60;;;;;;6260322;22;20021;-96
2023/08/30 21:06:03;;;;;;;2.47;0.70;;;14.60;89.70;;;;;;6317695;22;20020;-92
2023/08/30 21:08:32;;;;;;;1.55;0.70;;;14.60;89.80;;;;;;6211924;23;20028;-90
2023/08/30 21:10:59;;;;;;;3.20;0.90;;;14.60;89.90;;;;;;6317893;22;20104;-90
2023/08/30 21:13:28;;;;;;;4.63;1.55;;;14.50;89.90;;;;;;6187925;23;20469;-90
2023/08/30 21:15:57;;;;;;;2.72;0.70;;;14.50;90.00;;;;;;6317998;22;20102;-90
2023/08/30 21:18:27;;;;;;;;;;;14.50;90.00;;;;;;6212007;23;20028;-92
2023/08/30 21:21:01;;;;;;;2.92;0.73;;;14.50;90.00;;;;;;6211512;23;19973;-88
2023/08/30 21:23:28;;;;;;;2.00;0.80;;;14.50;90.00;;;;;;6187189;23;20025;-91
2023/08/30 21:25:56;;;;;;;2.97;0.77;;;14.50;90.00;;;;;;6187853;23;20445;-91
2023/08/30 21:28:42;;;;;;;3.75;1.40;;;14.40;90.10;;;;;;6188393;23;20029;-90
2023/08/30 21:36:04;;;;;;;2.15;0.60;;;14.30;90.10;;;;;;6050579;23;20010;-92
2023/08/30 21:39:08;;;;;;;3.47;0.80;;;14.20;90.20;;;;;;6097550;23;20021;-90
2023/08/30 23:41:19;;;;;;;0.47;0.20;;;12.50;92.20;;;;;;5945682;22;12355677;-92
2023/08/30 23:45:51;;;;;;;;;;;;;;;;;;;;;
